Time;durP1;ratioP1;P1;durP2;ratioP2;P2;SDS_P1;SDS_P2;PMS_P1;PMS_P2;Temp;Humidity;BMP_temperature;BMP_pressure;BME280_temperature;BME280_humidity;BME280_pressure;Samples;Min_cycle;Max_cycle;Signal;HPM_P1;HPM_P2
2023/08/30 00:01:13;;;;;;;10.65;9.27;;;14.30;99.90;;;;;;5059509;28;20037;-55
2023/08/30 00:03:39;;;;;;;12.80;9.68;;;14.20;99.90;;;;;;5068044;28;20063;-56
2023/08/30 00:06:06;;;;;;;12.68;9.77;;;14.20;99.90;;;;;;5064958;28;20057;-55
2023/08/30 00:08:33;;;;;;;12.98;8.90;;;14.20;99.90;;;;;;5065947;28;20052;-55
2023/08/30 00:10:59;;;;;;;17.45;9.20;;;14.20;99.90;;;;;;5079715;28;20049;-56
2023/08/30 00:13:26;;;;;;;12.32;9.20;;;14.20;99.90;;;;;;5079409;28;20056;-55
2023/08/30 00:15:52;;;;;;;12.43;9.55;;;14.20;99.90;;;;;;5078430;28;20040;-56
2023/08/30 00:18:20;;;;;;;14.38;9.30;;;14.10;99.90;;;;;;5079270;28;20063;-55
2023/08/30 00:20:46;;;;;;;12.25;9.43;;;14.10;99.90;;;;;;5070205;28;20052;-56
2023/08/30 00:23:12;;;;;;;12.05;9.05;;;14.10;99.90;;;;;;5060333;28;20052;-55
2023/08/30 00:25:37;;;;;;;13.07;8.95;;;14.10;99.90;;;;;;5057676;28;20199;-55
2023/08/30 00:28:03;;;;;;;11.13;8.65;;;14.10;99.90;;;;;;5059295;28;20504;-55
2023/08/30 00:30:29;;;;;;;10.30;8.60;;;14.10;99.90;;;;;;5059458;28;20037;-56
2023/08/30 00:32:55;;;;;;;12.45;9.23;;;14.10;99.90;;;;;;5058720;28;20067;-55
2023/08/30 00:35:20;;;;;;;13.43;9.30;;;14.00;99.90;;;;;;5059628;28;20048;-56
2023/08/30 00:37:46;;;;;;;15.68;9.82;;;14.00;99.90;;;;;;5057766;28;20052;-56
2023/08/30 00:40:12;;;;;;;12.75;9.88;;;14.00;99.90;;;;;;5074409;28;20064;-56
2023/08/30 00:42:40;;;;;;;13.20;9.00;;;14.00;99.90;;;;;;5078630;28;20036;-56
2023/08/30 00:45:06;;;;;;;13.07;9.20;;;13.90;99.90;;;;;;5081571;28;20055;-55
2023/08/30 00:47:33;;;;;;;10.02;8.63;;;13.90;99.90;;;;;;5082962;28;20626;-56
2023/08/30 00:49:58;;;;;;;10.82;9.52;;;13.90;99.90;;;;;;5081654;28;20052;-56
2023/08/30 00:52:24;;;;;;;11.65;9.75;;;13.90;99.90;;;;;;5078329;28;20096;-56
2023/08/30 00:54:50;;;;;;;11.20;9.57;;;13.80;99.90;;;;;;5070737;28;20033;-56
2023/08/30 00:57:16;;;;;;;11.75;9.40;;;13.90;99.90;;;;;;5078930;28;20060;-55
2023/08/30 00:59:42;;;;;;;12.55;9.68;;;13.80;99.90;;;;;;5064931;28;20561;-55
2023/08/30 01:02:08;;;;;;;12.80;10.40;;;13.80;99.90;;;;;;5080064;28;20055;-55
2023/08/30 01:04:34;;;;;;;16.33;9.98;;;13.80;99.90;;;;;;5064045;28;20056;-55
2023/08/30 01:06:59;;;;;;;14.38;10.05;;;13.80;99.90;;;;;;5080198;28;20033;-55
2023/08/30 01:09:25;;;;;;;11.98;10.20;;;13.80;99.90;;;;;;5075744;28;20067;-55
2023/08/30 01:12:06;;;;;;;14.35;10.45;;;13.80;99.90;;;;;;5065011;28;20044;-55
2023/08/30 01:14:46;;;;;;;13.38;10.07;;;13.70;99.90;;;;;;5065979;28;20056;-55
2023/08/30 01:17:16;;;;;;;12.57;9.85;;;13.70;99.90;;;;;;5072205;28;20552;-55
2023/08/30 01:19:55;;;;;;;13.68;9.93;;;13.70;99.90;;;;;;5074291;28;20040;-56
2023/08/30 01:22:58;;;;;;;11.02;9.85;;;13.70;99.90;;;;;;5079720;28;20485;-55
2023/08/30 01:25:42;;;;;;;10.52;8.65;;;13.70;99.90;;;;;;5075021;28;20064;-55
2023/08/30 01:28:09;;;;;;;11.40;9.15;;;13.70;99.90;;;;;;5066293;28;20048;-55
2023/08/30 01:30:40;;;;;;;13.23;9.82;;;13.70;99.90;;;;;;5079585;28;20077;-56
2023/08/30 01:33:07;;;;;;;12.05;9.82;;;13.70;99.90;;;;;;5068569;28;20065;-55
2023/08/30 01:35:35;;;;;;;13.50;9.18;;;13.70;99.90;;;;;;5079913;28;20032;-55
2023/08/30 01:38:05;;;;;;;10.60;9.23;;;13.70;99.90;;;;;;5062925;28;20095;-56
2023/08/30 01:40:35;;;;;;;14.02;9.20;;;13.60;99.90;;;;;;5075313;28;20800;-55
2023/08/30 01:43:02;;;;;;;9.77;8.15;;;13.70;99.90;;;;;;5073965;28;20063;-55
2023/08/30 01:45:29;;;;;;;12.63;9.70;;;13.70;99.90;;;;;;5067965;28;21003;-55
2023/08/30 01:47:57;;;;;;;12.48;9.80;;;13.70;99.90;;;;;;5064735;28;20041;-55
2023/08/30 01:50:23;;;;;;;13.75;9.50;;;13.70;99.90;;;;;;5063427;28;20491;-55
2023/08/30 01:52:50;;;;;;;10.68;9.13;;;13.70;99.90;;;;;;5074385;28;20053;-55
2023/08/30 01:55:20;;;;;;;14.45;9.48;;;13.70;99.90;;;;;;5059907;28;20089;-54
2023/08/30 01:57:45;;;;;;;11.48;9.45;;;13.70;99.90;;;;;;5061745;28;20041;-55
2023/08/30 02:00:12;;;;;;;14.95;10.20;;;13.70;99.90;;;;;;5076908;28;20036;-56
2023/08/30 02:02:38;;;;;;;12.82;9.82;;;13.70;99.90;;;;;;5059454;28;20319;-55
2023/08/30 02:05:04;;;;;;;13.38;10.80;;;13.70;99.90;;;;;;5060260;28;20051;-56
2023/08/30 02:07:43;;;;;;;13.75;10.40;;;13.70;99.90;;;;;;5051891;28;20530;-56
2023/08/30 02:10:15;;;;;;;14.23;10.48;;;13.70;99.90;;;;;;5052411;28;20055;-56
2023/08/30 02:12:48;;;;;;;12.02;10.68;;;13.70;99.90;;;;;;5053187;28;20714;-55
2023/08/30 02:15:15;;;;;;;12.20;10.82;;;13.70;99.90;;;;;;5054336;28;20060;-53
2023/08/30 02:17:41;;;;;;;12.43;10.88;;;13.70;99.90;;;;;;5052232;28;20033;-56
2023/08/30 02:20:07;;;;;;;13.55;10.70;;;13.60;99.90;;;;;;5051638;28;20597;-56
2023/08/30 02:22:33;;;;;;;17.27;11.63;;;13.60;99.90;;;;;;5052035;28;20044;-56
2023/08/30 02:25:04;;;;;;;12.27;10.82;;;13.60;99.90;;;;;;5050307;28;20107;-55
2023/08/30 02:27:31;;;;;;;14.25;11.52;;;13.50;99.90;;;;;;5053207;28;20046;-56
2023/08/30 02:29:56;;;;;;;14.75;12.02;;;13.50;99.90;;;;;;5051761;28;20053;-55
2023/08/30 02:32:22;;;;;;;13.40;11.98;;;13.40;99.90;;;;;;5052056;28;20075;-55
2023/08/30 02:34:52;;;;;;;16.15;11.98;;;13.40;99.90;;;;;;5051416;28;20048;-56
2023/08/30 02:37:18;;;;;;;18.65;12.75;;;13.40;99.90;;;;;;5072540;28;20515;-56
2023/08/30 02:39:45;;;;;;;16.45;11.43;;;13.40;99.90;;;;;;5066204;28;20078;-56
2023/08/30 02:42:10;;;;;;;13.98;11.82;;;13.30;99.90;;;;;;5066663;28;20032;-56
2023/08/30 02:44:36;;;;;;;14.50;11.80;;;13.30;99.90;;;;;;5061956;28;20088;-56
2023/08/30 02:47:02;;;;;;;16.92;11.95;;;13.30;99.90;;;;;;5063746;28;20036;-56
2023/08/30 02:49:27;;;;;;;17.48;12.10;;;13.30;99.90;;;;;;5062573;28;20041;-56
2023/08/30 02:51:53;;;;;;;17.00;12.05;;;13.30;99.90;;;;;;5059255;28;20063;-55
2023/08/30 02:54:19;;;;;;;14.30;11.55;;;13.20;99.90;;;;;;5062355;28;20041;-56
2023/08/30 02:56:44;;;;;;;14.13;12.00;;;13.30;99.90;;;;;;5061617;28;20048;-56
2023/08/30 02:59:11;;;;;;;15.75;11.60;;;13.30;99.90;;;;;;5062002;28;20037;-56
2023/08/30 03:01:37;;;;;;;18.45;12.73;;;13.30;99.90;;;;;;5077592;28;20043;-56
2023/08/30 03:04:05;;;;;;;15.20;11.90;;;13.30;99.90;;;;;;5073376;28;20079;-56
2023/08/30 03:06:32;;;;;;;14.68;11.45;;;13.30;99.90;;;;;;5077543;28;20045;-55
2023/08/30 03:08:58;;;;;;;13.98;11.52;;;13.30;99.90;;;;;;5075907;28;20055;-56
2023/08/30 03:11:24;;;;;;;15.18;12.27;;;13.30;99.90;;;;;;5062867;28;20041;-55
2023/08/30 03:13:50;;;;;;;17.02;12.07;;;13.30;99.90;;;;;;5063377;28;20056;-56
2023/08/30 03:16:16;;;;;;;13.90;12.40;;;13.30;99.90;;;;;;5073159;28;20098;-56
2023/08/30 03:18:43;;;;;;;12.82;11.13;;;13.30;99.90;;;;;;5079360;28;20036;-56
2023/08/30 03:21:10;;;;;;;13.88;11.82;;;13.30;99.90;;;;;;5075076;28;20045;-55
2023/08/30 03:23:36;;;;;;;16.48;11.82;;;13.30;99.90;;;;;;5079080;28;20036;-56
2023/08/30 03:26:13;;;;;;;16.40;12.55;;;13.30;99.90;;;;;;5079864;28;20051;-57
2023/08/30 03:28:39;;;;;;;17.33;12.73;;;13.30;99.90;;;;;;5078183;28;20083;-56
2023/08/30 03:31:20;;;;;;;15.02;12.02;;;13.30;99.90;;;;;;5080085;28;20090;-56
2023/08/30 03:33:46;;;;;;;18.10;12.65;;;13.30;99.90;;;;;;5079212;28;20040;-56
2023/08/30 03:36:16;;;;;;;14.70;12.02;;;13.30;99.90;;;;;;5079987;28;20036;-56
2023/08/30 03:38:42;;;;;;;16.67;11.93;;;13.40;99.90;;;;;;5073753;28;20103;-56
2023/08/30 03:41:09;;;;;;;17.02;11.90;;;13.40;99.90;;;;;;5067202;28;20052;-56
2023/08/30 03:43:35;;;;;;;16.90;11.13;;;13.40;99.90;;;;;;5059626;28;20049;-56
2023/08/30 03:46:02;;;;;;;13.98;11.48;;;13.40;99.90;;;;;;5061872;28;20037;-57
2023/08/30 03:48:28;;;;;;;13.18;11.80;;;13.40;99.90;;;;;;5064929;28;20079;-56
2023/08/30 03:50:55;;;;;;;14.43;11.10;;;13.50;99.90;;;;;;5069438;28;20263;-57
2023/08/30 03:53:21;;;;;;;13.85;10.90;;;13.50;99.90;;;;;;5074013;28;20536;-56
2023/08/30 03:55:47;;;;;;;14.20;10.98;;;13.50;99.90;;;;;;5062438;28;20041;-56
2023/08/30 03:58:12;;;;;;;14.45;11.95;;;13.50;99.90;;;;;;5064064;28;20128;-56
2023/08/30 04:00:39;;;;;;;15.52;11.52;;;13.50;99.90;;;;;;5065167;28;20041;-56
2023/08/30 04:03:08;;;;;;;14.60;10.52;;;13.50;99.90;;;;;;5064190;28;20045;-56
2023/08/30 04:05:34;;;;;;;13.82;11.50;;;13.50;99.90;;;;;;5071685;28;20040;-56
2023/08/30 04:08:02;;;;;;;13.18;10.65;;;13.60;99.90;;;;;;5063217;28;20041;-56
2023/08/30 04:10:27;;;;;;;13.90;11.20;;;13.60;99.90;;;;;;5059312;28;20052;-56
2023/08/30 04:12:53;;;;;;;14.32;11.10;;;13.50;99.90;;;;;;5057862;28;20065;-56
2023/08/30 04:15:19;;;;;;;12.65;10.93;;;13.60;99.90;;;;;;5058367;28;20060;-56
2023/08/30 04:17:45;;;;;;;14.13;11.82;;;13.60;99.90;;;;;;5059458;28;20045;-56
2023/08/30 04:20:11;;;;;;;13.50;11.07;;;13.60;99.90;;;;;;5061308;28;20108;-56
2023/08/30 04:22:36;;;;;;;13.65;11.02;;;13.60;99.90;;;;;;5065149;28;20142;-56
2023/08/30 04:25:04;;;;;;;13.27;10.68;;;13.60;99.90;;;;;;5067700;28;20041;-57
2023/08/30 04:27:30;;;;;;;16.45;11.82;;;13.60;99.90;;;;;;5071961;28;20067;-57
2023/08/30 04:29:55;;;;;;;14.57;11.40;;;13.60;99.90;;;;;;5075389;28;20041;-55
2023/08/30 04:32:21;;;;;;;14.02;11.15;;;13.60;99.90;;;;;;5067355;28;20036;-56
2023/08/30 04:34:47;;;;;;;15.68;11.50;;;13.60;99.90;;;;;;5073462;28;20114;-56
2023/08/30 04:37:13;;;;;;;13.90;11.32;;;13.60;99.90;;;;;;5072500;28;20056;-56
2023/08/30 04:39:40;;;;;;;18.00;11.30;;;13.60;99.90;;;;;;5068456;28;20044;-56
2023/08/30 04:42:06;;;;;;;13.57;11.50;;;13.60;99.90;;;;;;5063591;28;20037;-56
2023/08/30 04:44:32;;;;;;;13.63;10.93;;;13.60;99.90;;;;;;5082466;28;20037;-56
2023/08/30 04:46:58;;;;;;;16.08;11.35;;;13.70;99.90;;;;;;5066202;28;20115;-55
2023/08/30 04:49:25;;;;;;;14.38;10.68;;;13.70;99.90;;;;;;5061910;28;20083;-56
2023/08/30 04:51:51;;;;;;;14.63;11.35;;;13.60;99.90;;;;;;5078071;28;20044;-59
2023/08/30 04:54:17;;;;;;;15.18;11.02;;;13.70;99.90;;;;;;5064985;28;20517;-56
2023/08/30 04:56:42;;;;;;;14.80;11.10;;;13.70;99.90;;;;;;5066017;28;20044;-55
2023/08/30 04:59:08;;;;;;;16.55;12.00;;;13.70;99.90;;;;;;5074992;28;20045;-56
2023/08/30 05:01:34;;;;;;;17.08;11.38;;;13.70;99.90;;;;;;5069330;28;20036;-55
2023/08/30 05:03:59;;;;;;;14.15;11.55;;;13.70;99.90;;;;;;5075271;28;20033;-55
2023/08/30 05:06:26;;;;;;;15.82;11.63;;;13.70;99.90;;;;;;5077129;28;20068;-56
2023/08/30 05:08:51;;;;;;;14.88;11.15;;;13.70;99.90;;;;;;5079722;28;20036;-56
2023/08/30 05:11:17;;;;;;;14.98;11.40;;;13.70;99.90;;;;;;5065676;28;20161;-56
2023/08/30 05:13:43;;;;;;;16.10;11.80;;;13.70;99.90;;;;;;5077615;28;20107;-56
2023/08/30 05:16:08;;;;;;;17.50;11.43;;;13.70;99.90;;;;;;5068412;28;20049;-56
2023/08/30 05:18:34;;;;;;;15.55;11.73;;;13.70;99.90;;;;;;5062797;28;20048;-57
2023/08/30 05:21:03;;;;;;;18.88;12.48;;;13.70;99.90;;;;;;5065713;28;20471;-56
2023/08/30 05:23:29;;;;;;;20.40;13.35;;;13.80;99.90;;;;;;5062388;28;20049;-56
2023/08/30 05:25:54;;;;;;;16.23;12.48;;;13.70;99.90;;;;;;5061970;28;20091;-56
2023/08/30 05:28:20;;;;;;;16.83;12.32;;;13.80;99.90;;;;;;5063863;28;20044;-56
2023/08/30 05:30:46;;;;;;;16.48;13.07;;;13.80;99.90;;;;;;5060921;28;20045;-56
2023/08/30 05:33:11;;;;;;;15.93;12.88;;;13.80;99.90;;;;;;5060674;28;20044;-56
2023/08/30 05:35:37;;;;;;;18.20;12.70;;;13.80;99.90;;;;;;5063313;28;20037;-56
2023/08/30 05:38:03;;;;;;;16.02;12.32;;;13.90;99.90;;;;;;5077266;28;20056;-56
2023/08/30 05:40:28;;;;;;;15.95;12.48;;;13.90;99.90;;;;;;5079182;28;20112;-56
2023/08/30 05:42:54;;;;;;;15.73;12.63;;;13.90;99.90;;;;;;5071401;28;20055;-57
2023/08/30 05:45:20;;;;;;;17.88;12.82;;;13.90;99.90;;;;;;5060352;28;20075;-56
2023/08/30 05:47:46;;;;;;;17.10;12.52;;;13.90;99.90;;;;;;5061849;28;20041;-56
2023/08/30 05:50:12;;;;;;;17.80;12.35;;;14.00;99.90;;;;;;5058983;28;20056;-56
2023/08/30 05:52:41;;;;;;;16.58;13.38;;;14.00;99.90;;;;;;5061980;28;20037;-55
2023/08/30 05:55:08;;;;;;;17.20;12.75;;;14.00;99.90;;;;;;5060340;28;20051;-55
2023/08/30 05:57:34;;;;;;;16.27;11.65;;;14.00;99.90;;;;;;5061480;28;20041;-55
2023/08/30 06:00:00;;;;;;;16.58;12.77;;;14.00;99.90;;;;;;5061035;28;20033;-56
2023/08/30 06:02:26;;;;;;;17.83;12.80;;;14.10;99.90;;;;;;5061313;28;20532;-56
2023/08/30 06:04:52;;;;;;;16.33;12.77;;;14.10;99.90;;;;;;5061390;28;20037;-55
2023/08/30 06:07:18;;;;;;;18.95;13.98;;;14.10;99.90;;;;;;5060629;28;20041;-56
2023/08/30 06:09:44;;;;;;;17.35;12.93;;;14.10;99.90;;;;;;5061189;28;20041;-56
2023/08/30 06:12:10;;;;;;;16.98;12.52;;;14.20;99.90;;;;;;5060891;28;20041;-55
2023/08/30 06:14:36;;;;;;;19.98;12.40;;;14.20;99.90;;;;;;5061149;28;20088;-56
2023/08/30 06:17:02;;;;;;;19.65;12.77;;;14.20;99.90;;;;;;5060830;28;20048;-56
2023/08/30 06:19:27;;;;;;;18.38;12.80;;;14.20;99.90;;;;;;5060342;28;20049;-55
2023/08/30 06:21:53;;;;;;;18.30;12.55;;;14.20;99.90;;;;;;5060699;28;20063;-55
2023/08/30 06:24:19;;;;;;;18.30;12.52;;;14.30;99.90;;;;;;5059787;28;20037;-56
2023/08/30 06:26:45;;;;;;;15.60;12.48;;;14.30;99.90;;;;;;5061277;28;20052;-56
2023/08/30 06:29:10;;;;;;;16.52;12.10;;;14.30;99.90;;;;;;5059838;28;20045;-55
2023/08/30 06:31:36;;;;;;;15.55;12.05;;;14.30;99.90;;;;;;5060806;28;20097;-56
2023/08/30 06:34:02;;;;;;;16.42;12.00;;;14.40;99.90;;;;;;5060175;28;20036;-55
2023/08/30 06:36:28;;;;;;;17.45;12.77;;;14.40;99.90;;;;;;5064051;28;20151;-56
2023/08/30 06:38:53;;;;;;;20.48;12.52;;;14.40;99.90;;;;;;5059190;28;20124;-57
2023/08/30 06:41:19;;;;;;;15.10;11.88;;;14.40;99.90;;;;;;5059967;28;20060;-56
2023/08/30 06:43:45;;;;;;;15.50;11.65;;;14.40;99.90;;;;;;5060656;28;20071;-56
2023/08/30 06:46:10;;;;;;;17.83;12.52;;;14.40;99.90;;;;;;5059143;28;20041;-56
2023/08/30 06:48:36;;;;;;;18.55;12.02;;;14.40;99.90;;;;;;5060128;28;20041;-55
2023/08/30 06:51:02;;;;;;;19.52;11.95;;;14.40;99.90;;;;;;5060001;28;20067;-56
2023/08/30 06:53:27;;;;;;;15.70;11.35;;;14.40;99.90;;;;;;5060476;28;20041;-55
2023/08/30 06:56:02;;;;;;;17.85;12.20;;;14.50;99.90;;;;;;5060654;28;20059;-56
2023/08/30 06:58:28;;;;;;;13.95;11.35;;;14.50;99.90;;;;;;5059761;28;20045;-56
2023/08/30 07:00:54;;;;;;;15.18;10.57;;;14.60;99.90;;;;;;5058856;28;20044;-56
2023/08/30 07:03:19;;;;;;;15.15;10.85;;;14.90;99.90;;;;;;5059371;28;20124;-56
2023/08/30 07:05:47;;;;;;;16.55;11.18;;;15.10;99.90;;;;;;5060330;28;20144;-56
2023/08/30 07:08:14;;;;;;;13.48;10.73;;;15.30;99.90;;;;;;5058438;28;20421;-56
2023/08/30 07:10:41;;;;;;;15.13;10.82;;;15.40;99.90;;;;;;5060283;28;20091;-56
2023/08/30 07:13:10;;;;;;;16.00;11.77;;;15.50;99.90;;;;;;5059901;28;20053;-56
2023/08/30 07:15:36;;;;;;;15.02;11.10;;;15.50;99.90;;;;;;5058875;28;20090;-56
2023/08/30 07:18:03;;;;;;;15.77;11.00;;;15.60;99.90;;;;;;5060307;28;20043;-56
2023/08/30 07:20:29;;;;;;;15.63;11.63;;;15.80;99.90;;;;;;5058938;28;20048;-56
2023/08/30 07:22:55;;;;;;;14.38;11.40;;;16.00;99.90;;;;;;5060346;28;20044;-59
2023/08/30 07:25:20;;;;;;;15.57;10.27;;;16.30;99.90;;;;;;5059371;28;20041;-56
2023/08/30 07:27:46;;;;;;;15.82;10.63;;;16.40;99.90;;;;;;5059930;28;20071;-56
2023/08/30 07:30:12;;;;;;;13.90;11.15;;;16.40;99.90;;;;;;5069185;28;20067;-57
2023/08/30 07:32:38;;;;;;;14.75;11.60;;;16.30;99.90;;;;;;5079291;28;20033;-56
2023/08/30 07:35:04;;;;;;;13.95;10.65;;;16.10;99.90;;;;;;5079834;28;20079;-56
2023/08/30 07:37:30;;;;;;;14.75;11.52;;;16.00;99.90;;;;;;5079085;28;20079;-56
2023/08/30 07:39:56;;;;;;;13.77;10.68;;;15.90;99.90;;;;;;5080139;28;20036;-57
2023/08/30 07:42:21;;;;;;;13.90;10.40;;;15.80;99.90;;;;;;5079306;28;20044;-56
2023/08/30 07:44:47;;;;;;;15.27;11.43;;;15.70;99.90;;;;;;5079686;28;20128;-55
2023/08/30 07:47:13;;;;;;;17.48;11.82;;;15.70;99.90;;;;;;5072334;28;20088;-55
2023/08/30 07:49:39;;;;;;;16.23;12.02;;;15.60;99.90;;;;;;5067944;28;20037;-56
2023/08/30 07:52:05;;;;;;;16.50;11.30;;;15.60;99.90;;;;;;5062892;28;20037;-56
2023/08/30 07:54:31;;;;;;;14.52;11.10;;;15.60;99.90;;;;;;5061768;28;20116;-56
2023/08/30 07:56:56;;;;;;;15.98;11.73;;;15.60;99.90;;;;;;5063980;28;20041;-55
2023/08/30 07:59:22;;;;;;;15.15;11.57;;;15.50;99.90;;;;;;5063421;28;20055;-56
2023/08/30 08:01:48;;;;;;;16.13;11.75;;;15.50;99.90;;;;;;5079227;28;20064;-56
2023/08/30 08:04:13;;;;;;;18.90;12.65;;;15.50;99.90;;;;;;5070932;28;20048;-56
2023/08/30 08:06:39;;;;;;;16.98;12.45;;;15.40;99.90;;;;;;5076540;28;20630;-55
2023/08/30 08:09:06;;;;;;;15.55;11.65;;;15.40;99.90;;;;;;5065024;28;20033;-56
2023/08/30 08:11:32;;;;;;;16.35;11.68;;;15.40;99.90;;;;;;5062298;28;20041;-56
2023/08/30 08:13:57;;;;;;;17.33;12.38;;;15.30;99.90;;;;;;5061416;28;20136;-56
2023/08/30 08:16:23;;;;;;;16.77;12.30;;;15.40;99.90;;;;;;5073072;28;20062;-55
2023/08/30 08:18:50;;;;;;;17.98;11.93;;;15.30;99.90;;;;;;5083162;28;20075;-56
2023/08/30 08:21:16;;;;;;;19.13;12.45;;;15.30;99.90;;;;;;5083107;28;20047;-57
2023/08/30 08:23:42;;;;;;;18.20;11.43;;;15.30;99.90;;;;;;5083261;28;20036;-56
2023/08/30 08:26:07;;;;;;;16.33;12.00;;;15.30;99.90;;;;;;5083240;28;20051;-56
2023/08/30 08:28:33;;;;;;;19.48;12.70;;;15.30;99.90;;;;;;5075939;28;20048;-56
2023/08/30 08:30:59;;;;;;;17.95;11.55;;;15.20;99.90;;;;;;5063551;28;20574;-56
2023/08/30 08:33:24;;;;;;;18.02;12.20;;;15.20;99.90;;;;;;5061986;28;20040;-56
2023/08/30 08:35:50;;;;;;;15.93;11.40;;;15.10;99.90;;;;;;5063467;28;20528;-56
2023/08/30 08:38:16;;;;;;;14.63;10.88;;;15.10;99.90;;;;;;5062325;28;20056;-56
2023/08/30 08:40:42;;;;;;;17.75;11.82;;;15.00;99.90;;;;;;5062977;28;20048;-55
2023/08/30 08:43:11;;;;;;;14.50;10.38;;;15.00;99.90;;;;;;5066201;28;20041;-56
2023/08/30 08:45:37;;;;;;;18.33;12.00;;;14.90;99.90;;;;;;5061540;28;20429;-56
2023/08/30 08:48:06;;;;;;;21.13;12.82;;;14.90;99.90;;;;;;5062773;28;20037;-56
2023/08/30 08:50:35;;;;;;;19.50;12.38;;;14.90;99.90;;;;;;5061700;28;20076;-56
2023/08/30 08:53:04;;;;;;;16.75;12.25;;;14.80;99.90;;;;;;5063391;28;20041;-56
2023/08/30 08:55:30;;;;;;;17.65;12.15;;;14.70;99.90;;;;;;5062218;28;20037;-56
2023/08/30 08:57:58;;;;;;;18.77;12.35;;;14.70;99.90;;;;;;5062427;28;20044;-56
2023/08/30 09:00:25;;;;;;;16.42;11.98;;;14.70;99.90;;;;;;5062459;28;20049;-56
2023/08/30 09:02:52;;;;;;;15.98;12.00;;;14.60;99.90;;;;;;5061724;28;20052;-56
2023/08/30 09:05:19;;;;;;;18.60;12.88;;;14.60;99.90;;;;;;5061417;28;20056;-56
2023/08/30 09:07:45;;;;;;;18.55;13.02;;;14.60;99.90;;;;;;5061444;28;20049;-56
2023/08/30 09:10:11;;;;;;;19.42;12.00;;;15.10;99.90;;;;;;5062644;28;20044;-56
2023/08/30 09:12:37;;;;;;;16.60;11.15;;;14.60;99.90;;;;;;5062130;28;20048;-56
2023/08/30 09:15:04;;;;;;;15.30;11.20;;;14.60;99.90;;;;;;5061828;28;20056;-56
2023/08/30 09:17:39;;;;;;;13.52;10.43;;;14.70;99.90;;;;;;5062058;28;20128;-56
2023/08/30 09:20:12;;;;;;;14.27;10.52;;;14.70;99.90;;;;;;5061065;28;20052;-56
2023/08/30 09:22:42;;;;;;;12.55;9.43;;;14.70;99.90;;;;;;5061059;28;20085;-57
2023/08/30 09:25:09;;;;;;;13.00;8.52;;;14.70;99.90;;;;;;5061132;28;20037;-56
2023/08/30 09:27:35;;;;;;;12.50;8.65;;;14.70;99.90;;;;;;5075281;28;20044;-56
2023/08/30 09:30:03;;;;;;;12.60;9.15;;;14.80;99.90;;;;;;5066355;28;20087;-56
2023/08/30 09:32:29;;;;;;;15.45;9.20;;;14.90;99.90;;;;;;5061755;28;20037;-56
2023/08/30 09:34:55;;;;;;;15.63;9.25;;;14.90;99.90;;;;;;5062034;28;20094;-56
2023/08/30 09:37:22;;;;;;;12.32;8.35;;;15.00;99.90;;;;;;5060955;28;20084;-56
2023/08/30 09:39:51;;;;;;;13.35;8.77;;;15.10;99.90;;;;;;5061851;28;20033;-56
2023/08/30 09:42:17;;;;;;;11.13;9.13;;;15.20;99.90;;;;;;5060888;28;20048;-56
2023/08/30 09:44:44;;;;;;;13.73;9.48;;;15.30;99.90;;;;;;5061807;28;20040;-56
2023/08/30 09:47:09;;;;;;;11.60;7.75;;;15.30;99.90;;;;;;5061537;28;20060;-55
2023/08/30 09:49:45;;;;;;;14.48;9.45;;;15.40;99.90;;;;;;5059621;28;20029;-56
2023/08/30 09:52:14;;;;;;;10.43;8.70;;;15.50;99.90;;;;;;5061717;28;20037;-56
2023/08/30 09:54:43;;;;;;;12.13;8.57;;;15.60;99.90;;;;;;5062094;28;20045;-56
2023/08/30 09:57:10;;;;;;;11.98;9.73;;;15.60;99.90;;;;;;5062079;28;20049;-56
2023/08/30 09:59:37;;;;;;;14.50;10.10;;;15.60;99.90;;;;;;5059629;28;20053;-56
2023/08/30 10:02:05;;;;;;;11.70;8.80;;;15.60;99.90;;;;;;5061511;28;20470;-55
2023/08/30 10:04:32;;;;;;;14.15;8.48;;;15.50;99.90;;;;;;5061225;28;20088;-56
2023/08/30 10:06:58;;;;;;;11.10;8.48;;;15.40;99.90;;;;;;5060569;28;20098;-56
2023/08/30 10:09:24;;;;;;;10.63;7.32;;;15.40;99.90;;;;;;5061368;28;20178;-56
2023/08/30 10:11:51;;;;;;;10.40;8.60;;;15.30;99.90;;;;;;5061086;28;20147;-56
2023/08/30 10:14:17;;;;;;;12.27;8.43;;;15.20;99.90;;;;;;5060873;28;20044;-56
2023/08/30 10:16:45;;;;;;;10.85;8.77;;;15.20;99.90;;;;;;5060225;28;20045;-56
2023/08/30 10:19:17;;;;;;;13.05;8.75;;;15.20;99.90;;;;;;5061135;28;20203;-56
2023/08/30 10:21:44;;;;;;;11.25;8.13;;;15.20;99.90;;;;;;5060968;28;20037;-55
2023/08/30 10:24:13;;;;;;;11.57;8.55;;;15.10;99.90;;;;;;5059968;28;20063;-56
2023/08/30 10:26:41;;;;;;;12.20;8.75;;;15.10;99.90;;;;;;5061300;28;20596;-56
2023/08/30 10:29:10;;;;;;;10.93;8.23;;;15.10;99.90;;;;;;5058520;28;20053;-56
2023/08/30 10:31:39;;;;;;;11.50;8.13;;;15.00;99.90;;;;;;5061305;28;20091;-57
2023/08/30 10:34:17;;;;;;;8.38;7.18;;;15.10;99.90;;;;;;5060460;28;20104;-55
2023/08/30 10:36:43;;;;;;;9.98;8.25;;;15.10;99.90;;;;;;5060351;28;20569;-56
2023/08/30 10:39:13;;;;;;;10.75;8.82;;;15.00;99.90;;;;;;5060796;28;20086;-56
2023/08/30 10:41:55;;;;;;;13.23;8.93;;;15.00;99.90;;;;;;5061247;28;20049;-56
2023/08/30 10:44:22;;;;;;;10.40;9.00;;;15.00;99.90;;;;;;5060603;28;20049;-55
2023/08/30 10:46:53;;;;;;;12.15;9.48;;;15.00;99.90;;;;;;5060020;28;20052;-56
2023/08/30 10:49:19;;;;;;;12.13;9.30;;;15.00;99.90;;;;;;5059915;28;20113;-56
2023/08/30 10:51:47;;;;;;;13.73;9.35;;;15.00;99.90;;;;;;5060235;28;20048;-58
2023/08/30 10:54:17;;;;;;;12.30;9.27;;;15.00;99.90;;;;;;5059795;28;20059;-56
2023/08/30 10:56:52;;;;;;;14.45;9.00;;;15.00;99.90;;;;;;5058857;28;20072;-56
2023/08/30 10:59:19;;;;;;;11.10;9.02;;;15.10;99.90;;;;;;5059559;28;20037;-56
2023/08/30 11:01:46;;;;;;;13.10;9.10;;;15.10;99.90;;;;;;5059820;28;20112;-56
2023/08/30 11:04:15;;;;;;;14.85;9.38;;;15.10;99.90;;;;;;5060151;28;20128;-56
2023/08/30 11:06:43;;;;;;;10.93;9.00;;;15.10;99.90;;;;;;5059605;28;20049;-57
2023/08/30 11:09:10;;;;;;;16.23;10.18;;;15.10;99.90;;;;;;5060300;28;20083;-55
2023/08/30 11:11:39;;;;;;;11.70;9.40;;;15.10;99.90;;;;;;5059382;28;20039;-56
2023/08/30 11:14:07;;;;;;;12.18;10.13;;;15.10;99.90;;;;;;5058611;28;20584;-57
2023/08/30 11:16:34;;;;;;;15.10;10.30;;;15.10;99.90;;;;;;5059541;28;20107;-56
2023/08/30 11:19:02;;;;;;;15.52;9.70;;;15.10;99.90;;;;;;5062841;28;20037;-57
2023/08/30 11:21:32;;;;;;;13.93;10.02;;;15.10;99.90;;;;;;5060133;28;20096;-57
2023/08/30 11:23:58;;;;;;;12.25;9.73;;;15.00;99.90;;;;;;5059253;28;20045;-57
2023/08/30 11:26:24;;;;;;;10.57;8.98;;;15.10;99.90;;;;;;5060292;28;20037;-56
2023/08/30 11:28:52;;;;;;;13.77;9.93;;;15.10;99.90;;;;;;5058078;28;20037;-56
2023/08/30 11:31:27;;;;;;;11.48;9.15;;;15.10;99.90;;;;;;5065022;28;20043;-56
2023/08/30 11:33:55;;;;;;;13.25;9.98;;;15.10;99.90;;;;;;5079813;28;20090;-57
2023/08/30 11:36:22;;;;;;;11.93;9.77;;;15.10;99.90;;;;;;5079696;28;20051;-56
2023/08/30 11:38:52;;;;;;;12.73;9.80;;;15.00;99.90;;;;;;5079899;28;20051;-56
2023/08/30 11:41:20;;;;;;;13.10;9.43;;;15.10;99.90;;;;;;5079091;28;20500;-56
2023/08/30 11:43:46;;;;;;;13.00;10.05;;;15.00;99.90;;;;;;5080060;28;20040;-56
2023/08/30 11:46:12;;;;;;;10.80;9.48;;;15.00;99.90;;;;;;5073691;28;20049;-56
2023/08/30 11:48:41;;;;;;;12.85;9.50;;;15.00;99.90;;;;;;5079666;28;20053;-53
2023/08/30 11:51:08;;;;;;;11.45;8.23;;;15.10;99.90;;;;;;5079528;28;20060;-56
2023/08/30 11:53:38;;;;;;;8.93;7.30;;;15.10;99.90;;;;;;5079561;28;20405;-56
2023/08/30 11:56:05;;;;;;;9.90;8.80;;;15.10;99.90;;;;;;5079976;28;20112;-56
2023/08/30 11:58:35;;;;;;;11.68;9.18;;;15.10;99.90;;;;;;5078970;28;20043;-57
2023/08/30 12:01:05;;;;;;;10.45;7.40;;;15.20;99.90;;;;;;5079012;28;20056;-56
2023/08/30 12:03:31;;;;;;;10.93;8.50;;;15.20;99.90;;;;;;5078925;28;20355;-56
2023/08/30 12:05:58;;;;;;;10.05;8.00;;;15.20;99.90;;;;;;5079469;28;20045;-56
2023/08/30 12:08:25;;;;;;;12.82;8.75;;;15.20;99.90;;;;;;5079710;28;20105;-57
2023/08/30 12:10:52;;;;;;;8.70;7.80;;;15.30;99.90;;;;;;5079030;28;20070;-56
2023/08/30 12:13:26;;;;;;;8.68;7.70;;;15.20;99.90;;;;;;5079782;28;20129;-56
2023/08/30 12:15:53;;;;;;;8.93;7.28;;;15.30;99.90;;;;;;5073777;28;20041;-56
2023/08/30 12:18:29;;;;;;;9.82;8.38;;;15.30;99.90;;;;;;5059364;28;20049;-56
2023/08/30 12:20:56;;;;;;;8.57;7.70;;;15.30;99.90;;;;;;5058706;28;20524;-55
2023/08/30 12:23:26;;;;;;;8.57;7.68;;;15.40;99.90;;;;;;5059546;28;20049;-56
2023/08/30 12:26:09;;;;;;;7.60;6.80;;;15.30;99.90;;;;;;5059564;28;20064;-56
2023/08/30 12:28:37;;;;;;;7.70;6.95;;;15.40;99.90;;;;;;5058262;28;20455;-56
2023/08/30 12:31:06;;;;;;;9.85;8.00;;;15.40;99.90;;;;;;5059582;28;20053;-56